San Luis, Argentina
Current Conditions -  °F | °C
As of 4:00 PM on Thursday 20 Nov 2014 (Local Time) from SAOC Reporting Station
Thunderstorm Thunderstorm  
Wind Chill: 61°   Ceiling: 4000
Heat Index: 61°   Visibility: 6mi
Dew Point: 55°   Wind: 7mph
Humidity: 82%   Direction: 230°SW
Pressure: 29.97"   Gusts: NA
Location:  33.3°S, 66.35°W
Report Text: SAOC 201900Z 23006KT 9999 -TSRA FEW020FEW040CB BKN040 16/13 Q1015
Loading
Personal Weather Stations






























Interactive Weather Map New forecast layout! Learn more

10-Day Weather Forecast

Advertisements
Track Severe Weather on mobile